createdAt,value
2023-05-15T00:02:07.352Z,11.86
2023-05-15T00:05:09.498Z,11.96
2023-05-15T00:08:11.536Z,12.06
2023-05-15T00:11:13.537Z,12.13
2023-05-15T00:14:15.394Z,12.15
2023-05-15T00:17:17.301Z,12.14
2023-05-15T00:20:19.219Z,12.12
2023-05-15T00:23:21.175Z,12.07
2023-05-15T00:26:23.505Z,12.03
2023-05-15T00:29:25.358Z,12.01
2023-05-15T00:32:27.366Z,12.04
2023-05-15T00:35:29.340Z,12.04
2023-05-15T00:38:33.781Z,12.05
2023-05-15T00:41:37.013Z,12.05
2023-05-15T00:44:41.590Z,12.01
2023-05-15T00:47:43.983Z,11.94
2023-05-15T00:50:45.930Z,11.88
2023-05-15T00:53:47.913Z,11.85
2023-05-15T00:56:51.624Z,11.77
2023-05-15T00:59:56.873Z,11.70
2023-05-15T01:03:00.072Z,11.62
2023-05-15T01:06:02.418Z,11.57
2023-05-15T01:09:05.650Z,11.54
2023-05-15T01:12:09.885Z,11.50
2023-05-15T01:15:11.876Z,11.46
2023-05-15T01:18:13.774Z,11.41
2023-05-15T01:21:57.841Z,11.39
2023-05-15T01:25:37.100Z,11.37
2023-05-15T01:28:46.195Z,11.34
2023-05-15T01:31:57.219Z,11.34
2023-05-15T01:35:27.661Z,11.30
2023-05-15T01:38:39.993Z,11.26
2023-05-15T01:41:43.140Z,11.18
2023-05-15T01:45:06.017Z,11.15
2023-05-15T01:48:09.271Z,11.09
2023-05-15T01:51:13.725Z,11.07
2023-05-15T01:54:18.492Z,11.04
2023-05-15T01:57:25.165Z,11.00
2023-05-15T02:00:27.353Z,10.99
2023-05-15T02:03:34.620Z,10.97
2023-05-15T02:06:37.457Z,10.97
2023-05-15T02:09:40.224Z,10.97
2023-05-15T02:12:42.873Z,10.95
2023-05-15T02:15:44.797Z,10.92
2023-05-15T02:18:49.624Z,10.93
2023-05-15T02:21:51.510Z,10.88
2023-05-15T02:24:53.487Z,10.94
2023-05-15T02:28:00.164Z,10.97
2023-05-15T02:31:07.661Z,10.99
2023-05-15T02:34:32.749Z,11.00
2023-05-15T02:37:38.299Z,11.05
2023-05-15T02:40:40.902Z,11.09
2023-05-15T02:43:44.487Z,11.14
2023-05-15T02:46:48.310Z,11.19
2023-05-15T02:49:52.053Z,11.28
2023-05-15T02:53:05.184Z,11.39
2023-05-15T02:56:07.268Z,11.50
2023-05-15T02:59:09.271Z,11.68
2023-05-15T03:02:11.218Z,11.83
2023-05-15T03:05:13.166Z,11.98
2023-05-15T03:08:15.227Z,12.10
2023-05-15T03:11:19.326Z,12.23
2023-05-15T03:14:21.219Z,12.34
2023-05-15T03:17:23.105Z,12.45
2023-05-15T03:20:25.343Z,12.58
2023-05-15T03:23:27.263Z,12.69
2023-05-15T03:26:29.165Z,12.79
2023-05-15T03:29:31.234Z,12.94
2023-05-15T03:32:33.361Z,13.08
2023-05-15T03:35:36.218Z,13.22
2023-05-15T03:38:38.202Z,13.38
2023-05-15T03:41:40.128Z,13.55
2023-05-15T03:44:42.005Z,13.74
2023-05-15T03:47:44.020Z,13.96
2023-05-15T03:50:46.283Z,14.24
2023-05-15T03:53:48.216Z,14.52
2023-05-15T03:56:50.167Z,14.83
2023-05-15T03:59:52.011Z,15.20
2023-05-15T04:02:53.970Z,15.62
2023-05-15T04:05:55.941Z,16.01
2023-05-15T04:08:57.807Z,16.35
2023-05-15T04:11:59.685Z,16.66
2023-05-15T04:15:18.211Z,16.96
2023-05-15T04:18:20.103Z,17.28
2023-05-15T04:21:21.977Z,17.55
2023-05-15T04:24:23.791Z,17.86
2023-05-15T04:27:26.829Z,18.20
2023-05-15T04:30:28.725Z,18.44
2023-05-15T04:33:30.845Z,18.74
2023-05-15T04:36:32.786Z,19.06
2023-05-15T04:39:34.674Z,19.34
2023-05-15T04:42:39.121Z,19.60
2023-05-15T04:45:41.643Z,19.82
2023-05-15T04:48:43.506Z,20.09
2023-05-15T04:51:45.467Z,20.28
2023-05-15T04:54:49.694Z,20.52
2023-05-15T04:57:51.681Z,20.82
2023-05-15T05:00:53.887Z,21.02
2023-05-15T05:03:55.930Z,21.21
2023-05-15T05:06:57.836Z,21.45
2023-05-15T05:09:59.874Z,21.72
2023-05-15T05:13:01.734Z,21.97
2023-05-15T05:16:03.828Z,22.17
2023-05-15T05:19:06.730Z,22.44
2023-05-15T05:22:08.889Z,22.53
2023-05-15T05:25:11.001Z,22.76
2023-05-15T05:28:12.835Z,22.98
2023-05-15T05:31:15.118Z,23.10
2023-05-15T05:34:17.228Z,23.29
2023-05-15T05:37:19.153Z,23.55
2023-05-15T05:40:21.026Z,23.75
2023-05-15T05:43:22.927Z,23.82
2023-05-15T05:46:24.852Z,23.97
2023-05-15T05:49:26.809Z,24.20
2023-05-15T05:52:29.466Z,24.15
2023-05-15T05:55:31.403Z,24.06
2023-05-15T05:58:33.497Z,24.15
2023-05-15T06:01:35.532Z,24.28
2023-05-15T06:04:37.420Z,24.56
2023-05-15T06:07:39.562Z,24.73
2023-05-15T06:10:42.442Z,24.83
2023-05-15T06:13:44.511Z,25.13
2023-05-15T06:16:46.428Z,25.13
2023-05-15T06:19:48.452Z,25.20
2023-05-15T06:22:50.398Z,25.39
2023-05-15T06:25:52.454Z,25.53
2023-05-15T06:28:54.353Z,25.51
2023-05-15T06:31:56.408Z,25.66
2023-05-15T06:34:58.393Z,25.80
2023-05-15T06:38:00.316Z,25.91
2023-05-15T06:41:02.255Z,26.10
2023-05-15T06:44:04.762Z,26.10
2023-05-15T06:47:07.122Z,25.97
2023-05-15T06:50:09.718Z,25.97
2023-05-15T06:53:13.709Z,26.05
2023-05-15T06:56:16.383Z,25.89
2023-05-15T06:59:18.363Z,26.07
2023-05-15T07:02:20.365Z,26.28
2023-05-15T07:05:22.316Z,26.48
2023-05-15T07:08:24.373Z,26.58
2023-05-15T07:11:27.082Z,26.57
2023-05-15T07:14:29.027Z,26.51
2023-05-15T07:17:32.412Z,26.53
2023-05-15T07:20:35.169Z,26.66
2023-05-15T07:23:37.298Z,26.77
2023-05-15T07:26:50.273Z,26.75
2023-05-15T07:29:59.214Z,26.75
2023-05-15T07:33:01.314Z,26.75
2023-05-15T07:36:03.307Z,26.91
2023-05-15T07:39:05.182Z,26.98
2023-05-15T07:42:07.156Z,27.09
2023-05-15T07:45:09.522Z,27.49
2023-05-15T07:48:16.579Z,27.61
2023-05-15T07:51:18.470Z,27.74
2023-05-15T07:54:20.922Z,27.46
2023-05-15T07:57:23.246Z,27.69
2023-05-15T08:00:25.193Z,27.50
2023-05-15T08:03:27.142Z,27.40
2023-05-15T08:06:29.061Z,27.59
2023-05-15T08:09:30.907Z,27.68
2023-05-15T08:12:33.130Z,27.94
2023-05-15T08:15:35.089Z,27.98
2023-05-15T08:18:37.037Z,27.83
2023-05-15T08:21:39.444Z,28.05
2023-05-15T08:24:42.035Z,28.15
2023-05-15T08:27:43.992Z,28.28
2023-05-15T08:30:46.028Z,28.29
2023-05-15T08:33:47.910Z,28.30
2023-05-15T08:36:49.825Z,28.50
2023-05-15T08:39:51.610Z,28.79
2023-05-15T08:42:55.700Z,28.82
2023-05-15T08:45:58.314Z,28.81
2023-05-15T08:49:11.636Z,28.76
2023-05-15T08:52:13.833Z,28.80
2023-05-15T08:55:16.990Z,28.64
2023-05-15T08:58:21.650Z,27.69
2023-05-15T09:01:24.242Z,27.05
2023-05-15T09:04:26.258Z,27.10
2023-05-15T09:07:30.416Z,27.63
2023-05-15T09:10:33.785Z,28.10
2023-05-15T09:13:35.751Z,28.48
2023-05-15T09:16:38.260Z,28.71
2023-05-15T09:19:40.592Z,29.11
2023-05-15T09:22:42.516Z,29.37
2023-05-15T09:25:52.916Z,29.50
2023-05-15T09:29:02.832Z,28.78
2023-05-15T09:32:10.097Z,28.19
2023-05-15T09:35:31.063Z,27.56
2023-05-15T09:38:35.089Z,27.18
2023-05-15T09:41:43.887Z,27.44
2023-05-15T09:44:46.497Z,27.90
2023-05-15T09:47:48.686Z,28.17
2023-05-15T09:50:50.824Z,28.33
2023-05-15T09:53:54.312Z,28.06
2023-05-15T09:56:57.524Z,27.60
2023-05-15T10:00:10.397Z,27.22
2023-05-15T10:03:14.621Z,27.55
2023-05-15T10:06:19.099Z,27.63
2023-05-15T10:09:22.199Z,28.03
2023-05-15T10:12:27.960Z,28.39
2023-05-15T10:15:30.429Z,28.74
2023-05-15T10:18:36.057Z,29.00
2023-05-15T10:21:40.259Z,28.78
2023-05-15T10:24:45.062Z,29.04
2023-05-15T10:27:48.172Z,29.14
2023-05-15T10:30:50.782Z,29.36
2023-05-15T10:33:55.411Z,29.56
2023-05-15T10:36:57.860Z,29.66
2023-05-15T10:40:01.674Z,29.42
2023-05-15T10:43:04.218Z,29.07
2023-05-15T10:46:06.888Z,28.61
2023-05-15T10:49:09.044Z,28.59
2023-05-15T10:52:10.999Z,28.82
2023-05-15T10:55:18.077Z,28.53
2023-05-15T10:58:24.136Z,28.63
2023-05-15T11:01:32.000Z,28.52
2023-05-15T11:04:35.241Z,28.88
2023-05-15T11:07:37.316Z,29.12
2023-05-15T11:10:39.620Z,29.41
2023-05-15T11:14:20.158Z,29.69
2023-05-15T11:17:24.874Z,29.98
2023-05-15T11:20:49.789Z,29.87
2023-05-15T11:24:04.394Z,30.15
2023-05-15T11:27:06.298Z,29.56
2023-05-15T11:30:08.611Z,29.36
2023-05-15T11:33:11.534Z,29.38
2023-05-15T11:36:15.950Z,29.49
2023-05-15T11:39:17.830Z,29.56
2023-05-15T11:42:19.670Z,29.47
2023-05-15T11:45:22.808Z,29.49
2023-05-15T11:48:27.867Z,29.59
2023-05-15T11:51:30.286Z,29.93
2023-05-15T11:54:32.513Z,30.00
2023-05-15T11:57:34.316Z,29.97
2023-05-15T12:00:36.277Z,30.07
2023-05-15T12:03:38.502Z,30.27
2023-05-15T12:06:41.549Z,30.41
2023-05-15T12:09:44.175Z,30.48
2023-05-15T12:12:46.489Z,30.28
2023-05-15T12:15:48.570Z,29.75
2023-05-15T12:18:50.613Z,29.08
2023-05-15T12:21:52.543Z,28.52
2023-05-15T12:24:58.884Z,28.25
2023-05-15T12:28:03.121Z,27.97
2023-05-15T12:31:05.450Z,27.78
2023-05-15T12:34:07.564Z,27.97
2023-05-15T12:37:15.203Z,28.23
2023-05-15T12:40:21.395Z,28.54
2023-05-15T12:43:26.618Z,28.97
2023-05-15T12:46:32.168Z,29.11
2023-05-15T12:49:36.907Z,29.22
2023-05-15T12:52:38.779Z,29.07
2023-05-15T12:55:41.004Z,28.63
2023-05-15T12:58:43.122Z,28.24
2023-05-15T13:01:45.381Z,27.81
2023-05-15T13:04:47.473Z,27.60
2023-05-15T13:07:49.537Z,27.34
2023-05-15T13:10:59.275Z,27.37
2023-05-15T13:14:01.335Z,27.51
2023-05-15T13:17:03.527Z,27.80
2023-05-15T13:20:06.520Z,28.08
2023-05-15T13:23:10.604Z,28.37
2023-05-15T13:26:12.482Z,28.57
2023-05-15T13:29:14.406Z,28.63
2023-05-15T13:32:16.332Z,28.57
2023-05-15T13:35:18.464Z,28.63
2023-05-15T13:38:20.923Z,28.59
2023-05-15T13:41:22.903Z,28.42
2023-05-15T13:44:24.827Z,28.49
2023-05-15T13:47:27.032Z,28.14
2023-05-15T13:50:29.021Z,27.85
2023-05-15T13:53:30.896Z,27.82
2023-05-15T13:56:32.688Z,27.65
2023-05-15T13:59:34.535Z,27.66
2023-05-15T14:02:36.354Z,27.79
2023-05-15T14:05:38.451Z,27.99
2023-05-15T14:08:40.411Z,27.98
2023-05-15T14:11:42.318Z,28.07
2023-05-15T14:14:45.959Z,27.82
2023-05-15T14:17:48.893Z,27.91
2023-05-15T14:20:50.895Z,27.73
2023-05-15T14:23:52.754Z,27.78
2023-05-15T14:26:54.488Z,27.78
2023-05-15T14:29:59.448Z,27.66
2023-05-15T14:33:01.431Z,27.66
2023-05-15T14:36:04.684Z,27.89
2023-05-15T14:39:06.690Z,28.00
2023-05-15T14:42:08.619Z,27.93
2023-05-15T14:45:10.584Z,27.74
2023-05-15T14:48:12.570Z,27.74
2023-05-15T14:51:14.490Z,27.59
2023-05-15T14:54:16.423Z,27.54
2023-05-15T14:57:20.469Z,27.41
2023-05-15T15:00:22.443Z,27.39
2023-05-15T15:03:25.768Z,27.43
2023-05-15T15:06:29.501Z,27.41
2023-05-15T15:09:31.387Z,27.46
2023-05-15T15:12:34.276Z,27.46
2023-05-15T15:15:37.403Z,27.37
2023-05-15T15:18:39.399Z,27.22
2023-05-15T15:21:41.312Z,27.09
2023-05-15T15:24:43.141Z,26.85
2023-05-15T15:27:46.432Z,26.71
2023-05-15T15:30:48.357Z,26.29
2023-05-15T15:33:50.134Z,26.07
2023-05-15T15:36:52.078Z,25.82
2023-05-15T15:39:53.797Z,25.58
2023-05-15T15:42:55.765Z,25.49
2023-05-15T15:45:57.667Z,25.33
2023-05-15T15:49:00.346Z,25.26
2023-05-15T15:52:02.374Z,25.03
2023-05-15T15:55:04.309Z,24.85
2023-05-15T15:58:06.288Z,24.75
2023-05-15T16:01:08.219Z,24.57
2023-05-15T16:04:10.229Z,24.46
2023-05-15T16:07:12.448Z,24.35
2023-05-15T16:10:14.570Z,24.24
2023-05-15T16:13:16.602Z,24.11
2023-05-15T16:16:18.693Z,23.96
2023-05-15T16:19:21.361Z,23.86
2023-05-15T16:22:23.206Z,23.76
2023-05-15T16:25:25.273Z,23.65
2023-05-15T16:28:27.133Z,23.51
2023-05-15T16:31:29.082Z,23.41
2023-05-15T16:34:31.095Z,23.28
2023-05-15T16:37:32.913Z,23.16
2023-05-15T16:40:34.744Z,23.05
2023-05-15T16:43:38.259Z,22.90
2023-05-15T16:46:40.225Z,22.79
2023-05-15T16:49:44.273Z,22.63
2023-05-15T16:52:47.815Z,22.47
2023-05-15T16:55:49.838Z,22.29
2023-05-15T16:58:53.667Z,22.12
2023-05-15T17:01:55.577Z,21.97
2023-05-15T17:04:57.490Z,21.78
2023-05-15T17:08:00.329Z,21.60
2023-05-15T17:11:02.181Z,21.41
2023-05-15T17:14:04.115Z,21.24
2023-05-15T17:17:06.066Z,21.07
2023-05-15T17:20:08.815Z,20.90
2023-05-15T17:23:10.739Z,20.70
2023-05-15T17:26:12.642Z,20.46
2023-05-15T17:29:14.563Z,20.27
2023-05-15T17:32:17.516Z,20.09
2023-05-15T17:35:19.601Z,19.91
2023-05-15T17:38:21.488Z,19.74
2023-05-15T17:41:23.410Z,19.56
2023-05-15T17:44:28.113Z,19.40
2023-05-15T17:47:30.086Z,19.29
2023-05-15T17:50:32.103Z,19.16
2023-05-15T17:53:34.070Z,19.00
2023-05-15T17:56:36.051Z,18.83
2023-05-15T17:59:38.016Z,18.73
2023-05-15T18:02:39.937Z,18.57
2023-05-15T18:05:41.807Z,18.46
2023-05-15T18:08:47.617Z,18.35
2023-05-15T18:11:49.530Z,18.24
2023-05-15T18:14:52.868Z,18.16
2023-05-15T18:17:54.833Z,18.08
2023-05-15T18:20:56.842Z,17.96
2023-05-15T18:23:58.764Z,17.89
2023-05-15T18:27:01.325Z,17.79
2023-05-15T18:30:03.310Z,17.72
2023-05-15T18:33:05.295Z,17.65
2023-05-15T18:36:08.351Z,17.55
2023-05-15T18:39:10.268Z,17.43
2023-05-15T18:42:12.208Z,17.33
2023-05-15T18:45:14.099Z,17.24
2023-05-15T18:48:16.018Z,17.11
2023-05-15T18:51:19.283Z,17.00
2023-05-15T18:54:21.180Z,16.87
2023-05-15T18:57:23.056Z,16.70
2023-05-15T19:00:37.069Z,16.61
2023-05-15T19:03:39.552Z,16.53
2023-05-15T19:06:44.521Z,16.46
2023-05-15T19:09:46.490Z,16.40
2023-05-15T19:12:48.443Z,16.33
2023-05-15T19:15:53.936Z,16.32
2023-05-15T19:18:56.019Z,16.29
2023-05-15T19:21:58.137Z,16.23
2023-05-15T19:25:00.177Z,16.21
2023-05-15T19:28:02.065Z,16.18
2023-05-15T19:31:11.774Z,16.18
2023-05-15T19:34:19.213Z,16.14
2023-05-15T19:37:21.142Z,16.11
2023-05-15T19:40:22.998Z,16.06
2023-05-15T19:43:24.905Z,16.00
2023-05-15T19:46:26.780Z,15.93
2023-05-15T19:49:28.960Z,15.87
2023-05-15T19:52:30.824Z,15.80
2023-05-15T19:55:32.905Z,15.74
2023-05-15T19:58:34.850Z,15.68
2023-05-15T20:01:36.794Z,15.64
2023-05-15T20:04:38.792Z,15.57
2023-05-15T20:07:41.118Z,15.50
2023-05-15T20:10:43.109Z,15.44
2023-05-15T20:13:45.649Z,15.34
2023-05-15T20:16:47.561Z,15.24
2023-05-15T20:19:49.654Z,15.16
2023-05-15T20:22:51.736Z,15.08
2023-05-15T20:25:54.618Z,15.02
2023-05-15T20:28:56.593Z,14.93
2023-05-15T20:31:59.607Z,14.87
2023-05-15T20:35:01.750Z,14.84
2023-05-15T20:38:04.461Z,14.80
2023-05-15T20:41:06.933Z,14.75
2023-05-15T20:44:08.873Z,14.68
2023-05-15T20:47:10.864Z,14.62
2023-05-15T20:50:12.819Z,14.56
2023-05-15T20:53:14.705Z,14.51
2023-05-15T20:56:16.640Z,14.48
2023-05-15T20:59:18.473Z,14.39
2023-05-15T21:02:20.340Z,14.34
2023-05-15T21:05:22.377Z,14.24
2023-05-15T21:08:24.343Z,14.20
2023-05-15T21:11:26.357Z,14.12
2023-05-15T21:14:28.259Z,14.06
2023-05-15T21:17:30.490Z,14.00
2023-05-15T21:20:34.905Z,13.96
2023-05-15T21:23:37.191Z,13.93
2023-05-15T21:26:39.134Z,13.91
2023-05-15T21:29:41.049Z,13.91
2023-05-15T21:32:42.932Z,13.83
2023-05-15T21:35:45.456Z,13.80
2023-05-15T21:38:47.593Z,13.80
2023-05-15T21:41:51.287Z,13.80
2023-05-15T21:44:53.100Z,13.82
2023-05-15T21:47:55.067Z,13.79
2023-05-15T21:50:57.762Z,13.77
2023-05-15T21:53:59.661Z,13.73
2023-05-15T21:57:01.584Z,13.70
2023-05-15T22:00:06.918Z,13.69
2023-05-15T22:03:08.782Z,13.70
2023-05-15T22:06:11.007Z,13.72
2023-05-15T22:09:12.878Z,13.74
2023-05-15T22:12:14.754Z,13.76
2023-05-15T22:15:17.116Z,13.80
2023-05-15T22:18:19.067Z,13.89
2023-05-15T22:21:21.086Z,14.00
2023-05-15T22:24:23.126Z,14.09
2023-05-15T22:27:25.024Z,14.19
2023-05-15T22:30:27.141Z,14.27
2023-05-15T22:33:29.619Z,14.29
2023-05-15T22:36:32.140Z,14.34
2023-05-15T22:39:34.271Z,14.37
2023-05-15T22:42:36.312Z,14.40
2023-05-15T22:45:38.472Z,14.45
2023-05-15T22:48:41.506Z,14.47
2023-05-15T22:51:44.754Z,14.54
2023-05-15T22:54:46.690Z,14.55
2023-05-15T22:57:48.791Z,14.60
2023-05-15T23:00:50.934Z,14.61
2023-05-15T23:03:52.895Z,14.62
2023-05-15T23:06:55.825Z,14.63
2023-05-15T23:09:57.857Z,14.62
2023-05-15T23:12:59.638Z,14.60
2023-05-15T23:16:01.568Z,14.61
2023-05-15T23:19:04.239Z,14.61
2023-05-15T23:22:06.538Z,14.60
2023-05-15T23:25:08.935Z,14.57
2023-05-15T23:28:11.105Z,14.54
2023-05-15T23:31:14.130Z,14.54
2023-05-15T23:34:16.242Z,14.49
2023-05-15T23:37:18.488Z,14.45
2023-05-15T23:40:20.453Z,14.43
2023-05-15T23:43:22.451Z,14.39
2023-05-15T23:46:24.509Z,14.37
2023-05-15T23:49:26.540Z,14.34
2023-05-15T23:52:28.510Z,14.30
2023-05-15T23:55:30.439Z,14.26
2023-05-15T23:58:32.341Z,14.20
